createdAt,value
2022-07-31T00:01:12.177Z,93594.53
2022-07-31T00:06:21.431Z,93605.90
2022-07-31T00:11:29.098Z,93589.14
2022-07-31T00:16:36.315Z,93590.16
2022-07-31T00:21:44.091Z,93585.37
2022-07-31T00:26:52.907Z,93586.86
2022-07-31T00:32:00.694Z,93593.09
2022-07-31T00:37:08.235Z,93582.30
2022-07-31T00:42:26.336Z,93573.95
2022-07-31T00:47:33.610Z,93591.14
2022-07-31T00:52:42.327Z,93585.83
2022-07-31T00:57:48.978Z,93578.78
2022-07-31T01:02:55.900Z,93585.77
2022-07-31T01:08:03.547Z,93585.98
2022-07-31T01:13:14.800Z,93575.07
2022-07-31T01:18:23.095Z,93574.92
2022-07-31T01:24:02.766Z,93581.11
2022-07-31T01:29:25.866Z,93580.31
2022-07-31T01:34:52.922Z,93573.50
2022-07-31T01:40:07.379Z,93581.77
2022-07-31T01:45:18.379Z,93570.94
2022-07-31T01:50:42.216Z,93573.48
2022-07-31T01:56:02.371Z,93567.35
2022-07-31T02:00:50.754Z,93571.22
2022-07-31T02:06:00.567Z,93571.41
2022-07-31T02:11:10.713Z,93571.45
2022-07-31T02:16:20.216Z,93572.47
2022-07-31T02:21:29.625Z,93581.25
2022-07-31T02:26:39.351Z,93583.95
2022-07-31T02:32:02.511Z,93572.42
2022-07-31T02:37:00.538Z,93566.36
2022-07-31T02:42:08.786Z,93571.73
2022-07-31T02:47:18.355Z,93573.14
2022-07-31T02:52:26.925Z,93577.97
2022-07-31T02:57:33.837Z,93568.33
2022-07-31T03:02:45.130Z,93577.50
2022-07-31T03:07:52.064Z,93560.06
2022-07-31T03:13:02.077Z,93562.73
2022-07-31T03:23:34.983Z,93565.00
2022-07-31T03:28:43.022Z,93567.69
2022-07-31T03:33:53.537Z,93566.30
2022-07-31T03:39:01.892Z,93565.97
2022-07-31T03:44:12.188Z,93568.80
2022-07-31T03:49:19.733Z,93565.72
2022-07-31T03:54:27.994Z,93565.08
2022-07-31T03:59:40.698Z,93560.45
2022-07-31T04:04:47.073Z,93569.52
2022-07-31T04:09:54.736Z,93570.52
2022-07-31T04:15:02.033Z,93579.17
2022-07-31T04:20:12.105Z,93581.77
2022-07-31T04:25:19.531Z,93569.13
2022-07-31T04:30:27.810Z,93603.91
2022-07-31T04:35:35.345Z,93601.80
2022-07-31T04:40:45.169Z,93605.72
2022-07-31T04:45:52.205Z,93612.20
2022-07-31T04:50:59.106Z,93614.44
2022-07-31T04:56:24.700Z,93607.03
2022-07-31T05:01:32.208Z,93611.91
2022-07-31T05:06:44.706Z,93609.84
2022-07-31T05:11:55.844Z,93618.25
2022-07-31T05:17:03.025Z,93622.80
2022-07-31T05:22:12.006Z,93615.91
2022-07-31T05:27:20.167Z,93631.56
2022-07-31T05:32:27.555Z,93617.48
2022-07-31T05:37:34.312Z,93621.66
2022-07-31T05:42:41.222Z,93621.37
2022-07-31T05:47:49.675Z,93625.88
2022-07-31T05:52:57.056Z,93629.50
2022-07-31T05:58:03.910Z,93626.74
2022-07-31T06:03:14.245Z,93633.23
2022-07-31T06:08:20.964Z,93637.84
2022-07-31T06:13:31.076Z,93645.84
2022-07-31T06:18:38.014Z,93655.48
2022-07-31T06:23:46.426Z,93652.66
2022-07-31T06:28:55.746Z,93655.11
2022-07-31T06:34:02.891Z,93657.52
2022-07-31T06:39:09.669Z,93658.02
2022-07-31T06:44:20.542Z,93664.28
2022-07-31T06:49:29.097Z,93658.58
2022-07-31T06:54:36.393Z,93661.16
2022-07-31T06:59:46.445Z,93662.50
2022-07-31T07:05:05.402Z,93661.02
2022-07-31T07:10:05.266Z,93660.97
2022-07-31T07:15:14.142Z,93663.88
2022-07-31T07:20:21.599Z,93662.92
2022-07-31T07:25:29.420Z,93661.66
2022-07-31T07:30:38.785Z,93670.51
2022-07-31T07:35:51.076Z,93653.98
2022-07-31T07:40:58.311Z,93654.22
2022-07-31T07:46:05.827Z,93669.64
2022-07-31T07:51:13.656Z,93658.82
2022-07-31T07:56:20.406Z,93649.83
2022-07-31T08:01:29.167Z,93647.67
2022-07-31T08:06:36.106Z,93651.69
2022-07-31T08:11:42.892Z,93647.20
2022-07-31T08:16:49.777Z,93646.09
2022-07-31T08:21:57.281Z,93647.47
2022-07-31T08:27:22.650Z,93642.14
2022-07-31T08:32:31.548Z,93646.78
2022-07-31T08:37:52.228Z,93651.50
2022-07-31T08:42:49.810Z,93644.00
2022-07-31T08:47:59.329Z,93665.09
2022-07-31T08:53:08.874Z,93644.10
2022-07-31T08:58:17.627Z,93641.02
2022-07-31T09:03:25.911Z,93632.02
2022-07-31T09:08:39.102Z,93626.86
2022-07-31T09:14:02.742Z,93619.05
2022-07-31T09:19:52.618Z,93610.16
2022-07-31T09:24:29.293Z,93614.66
2022-07-31T09:29:41.186Z,93602.67
2022-07-31T09:34:50.189Z,93602.36
2022-07-31T09:39:59.611Z,93597.80
2022-07-31T09:45:08.427Z,93605.48
2022-07-31T09:50:16.475Z,93595.93
2022-07-31T09:55:25.510Z,93589.41
2022-07-31T10:00:32.419Z,93596.38
2022-07-31T10:05:40.207Z,93599.27
2022-07-31T10:10:51.135Z,93594.05
2022-07-31T10:16:02.101Z,93591.77
2022-07-31T10:21:12.341Z,93582.99
2022-07-31T10:26:34.324Z,93577.88
2022-07-31T10:31:32.541Z,93577.66
2022-07-31T10:36:45.517Z,93574.16
2022-07-31T10:42:04.342Z,93574.23
2022-07-31T10:47:20.191Z,93570.95
2022-07-31T10:52:37.680Z,93571.81
2022-07-31T10:57:56.130Z,93568.83
2022-07-31T11:02:55.571Z,93562.39
2022-07-31T11:08:06.232Z,93553.87
2022-07-31T11:13:14.980Z,93567.14
2022-07-31T11:18:28.867Z,93586.52
2022-07-31T11:23:39.287Z,93579.52
2022-07-31T11:28:49.102Z,93590.44
2022-07-31T11:33:56.089Z,93580.94
2022-07-31T11:39:06.931Z,93565.85
2022-07-31T11:44:15.023Z,93577.18
2022-07-31T11:49:48.169Z,93569.66
2022-07-31T11:54:35.897Z,93556.83
2022-07-31T11:59:42.867Z,93582.11
2022-07-31T12:04:53.862Z,93565.07
2022-07-31T12:10:03.781Z,93576.33
2022-07-31T12:15:23.052Z,93564.71
2022-07-31T12:20:36.298Z,93563.77
2022-07-31T12:25:47.630Z,93572.25
2022-07-31T12:31:04.013Z,93588.37
2022-07-31T12:36:19.260Z,93582.52
2022-07-31T12:41:30.656Z,93564.97
2022-07-31T12:46:39.775Z,93561.02
2022-07-31T12:51:47.392Z,93573.88
2022-07-31T12:56:55.287Z,93574.57
2022-07-31T13:02:03.653Z,93571.80
2022-07-31T13:07:11.983Z,93568.48
2022-07-31T13:12:19.556Z,93577.33
2022-07-31T13:17:26.862Z,93582.20
2022-07-31T13:22:33.655Z,93565.33
2022-07-31T13:27:42.776Z,93560.99
2022-07-31T13:32:49.836Z,93556.98
2022-07-31T13:37:58.493Z,93557.65
2022-07-31T13:43:06.296Z,93562.41
2022-07-31T13:48:13.787Z,93568.20
2022-07-31T13:53:20.998Z,93567.77
2022-07-31T13:58:29.261Z,93564.80
2022-07-31T14:03:36.460Z,93558.16
2022-07-31T14:08:49.674Z,93554.22
2022-07-31T14:13:53.239Z,93563.38
2022-07-31T14:19:00.107Z,93565.77
2022-07-31T14:24:08.786Z,93572.19
2022-07-31T14:29:16.616Z,93559.16
2022-07-31T14:34:24.041Z,93557.91
2022-07-31T14:39:33.017Z,93549.57
2022-07-31T14:44:44.641Z,93556.77
2022-07-31T14:50:06.941Z,93553.25
2022-07-31T14:55:04.143Z,93564.00
2022-07-31T15:00:13.484Z,93559.50
2022-07-31T15:06:37.470Z,93563.73
2022-07-31T15:10:29.378Z,93558.22
2022-07-31T15:15:37.224Z,93553.83
2022-07-31T15:20:56.675Z,93558.22
2022-07-31T15:26:05.976Z,93554.97
2022-07-31T15:31:13.275Z,93555.49
2022-07-31T15:36:25.740Z,93557.19
2022-07-31T15:41:34.071Z,93549.29
2022-07-31T15:46:47.273Z,93565.07
2022-07-31T15:51:55.099Z,93555.31
2022-07-31T15:57:02.421Z,93554.30
2022-07-31T16:02:11.705Z,93548.06
2022-07-31T16:08:32.745Z,93548.27
2022-07-31T16:12:32.720Z,93548.41
2022-07-31T16:17:40.206Z,93544.70
2022-07-31T16:22:51.315Z,93548.73
2022-07-31T16:28:01.947Z,93552.14
2022-07-31T16:33:13.864Z,93544.23
2022-07-31T16:38:24.306Z,93544.32
2022-07-31T16:43:48.801Z,93548.21
2022-07-31T16:48:46.708Z,93543.94
2022-07-31T16:54:13.152Z,93544.45
2022-07-31T16:59:07.203Z,93544.98
2022-07-31T17:04:18.874Z,93549.00
2022-07-31T17:09:27.058Z,93553.30
2022-07-31T17:14:38.403Z,93560.67
2022-07-31T17:19:46.981Z,93566.50
2022-07-31T17:24:58.039Z,93567.16
2022-07-31T17:30:08.353Z,93575.84
2022-07-31T17:35:17.105Z,93575.78
2022-07-31T17:40:42.432Z,93579.95
2022-07-31T17:45:37.139Z,93583.81
2022-07-31T17:50:43.319Z,93588.48
2022-07-31T17:55:53.592Z,93593.78
2022-07-31T18:01:02.949Z,93592.20
2022-07-31T18:06:11.519Z,93591.53
2022-07-31T18:11:18.274Z,93603.66
2022-07-31T18:16:27.343Z,93602.52
2022-07-31T18:21:34.741Z,93597.51
2022-07-31T18:26:41.760Z,93599.59
2022-07-31T18:31:50.335Z,93608.59
2022-07-31T18:37:00.553Z,93607.37
2022-07-31T18:42:08.858Z,93607.14
2022-07-31T18:47:19.061Z,93606.24
2022-07-31T18:52:26.970Z,93610.38
2022-07-31T18:57:35.425Z,93610.50
2022-07-31T19:02:45.052Z,93615.23
2022-07-31T19:07:53.125Z,93618.94
2022-07-31T19:13:03.155Z,93625.79
2022-07-31T19:18:10.729Z,93637.25
2022-07-31T19:23:25.648Z,93636.18
2022-07-31T19:28:36.878Z,93639.50
2022-07-31T19:33:47.022Z,93639.94
2022-07-31T19:38:55.251Z,93642.19
2022-07-31T19:44:06.561Z,93654.21
2022-07-31T19:49:15.762Z,93653.33
2022-07-31T19:54:22.541Z,93660.42
2022-07-31T19:59:31.136Z,93664.41
2022-07-31T20:04:39.356Z,93655.92
2022-07-31T20:09:48.424Z,93651.59
2022-07-31T20:14:55.130Z,93649.39
2022-07-31T20:20:15.595Z,93651.87
2022-07-31T20:25:20.133Z,93648.95
2022-07-31T20:30:29.020Z,93651.63
2022-07-31T20:35:49.102Z,93652.64
2022-07-31T20:40:54.328Z,93658.80
2022-07-31T20:46:04.762Z,93658.12
2022-07-31T20:51:19.355Z,93650.22
2022-07-31T20:56:27.447Z,93647.45
2022-07-31T21:01:39.123Z,93651.83
2022-07-31T21:06:51.265Z,93649.80
2022-07-31T21:12:02.443Z,93643.51
2022-07-31T21:17:13.595Z,93653.40
2022-07-31T21:22:25.506Z,93638.00
2022-07-31T21:27:40.170Z,93643.55
2022-07-31T21:32:55.455Z,93642.02
2022-07-31T21:38:13.125Z,93646.47
2022-07-31T21:43:25.332Z,93645.23
2022-07-31T21:48:41.399Z,93649.82
2022-07-31T21:53:50.183Z,93649.48
2022-07-31T21:59:02.871Z,93645.78
2022-07-31T22:04:13.090Z,93645.27
2022-07-31T22:09:29.993Z,93651.60
2022-07-31T22:14:41.684Z,93655.80
2022-07-31T22:19:57.450Z,93658.66
2022-07-31T22:25:11.137Z,93652.20
2022-07-31T22:30:26.027Z,93654.23
2022-07-31T22:35:41.299Z,93651.54
2022-07-31T22:40:53.892Z,93646.59
2022-07-31T22:46:09.955Z,93639.40
2022-07-31T22:51:23.213Z,93630.52
2022-07-31T22:56:34.254Z,93630.52
2022-07-31T23:01:44.735Z,93619.14
2022-07-31T23:06:57.521Z,93626.33
2022-07-31T23:12:14.440Z,93632.27
2022-07-31T23:17:23.752Z,93628.41
2022-07-31T23:22:34.262Z,93628.71
2022-07-31T23:27:46.813Z,93623.53
2022-07-31T23:32:59.237Z,93624.22
2022-07-31T23:38:10.114Z,93632.05
2022-07-31T23:43:22.641Z,93620.27
2022-07-31T23:48:30.319Z,93623.55
2022-07-31T23:53:40.990Z,93614.63
2022-07-31T23:58:52.286Z,93616.66
